sensor_id;sensor_type;location;lat;lon;timestamp;P1;durP1;ratioP1;P2;durP2;ratioP2
49103;SDS011;34915;52.926;11.116;2022-07-12T00:01:42;1.77;;;1.00;;
49103;SDS011;34915;52.926;11.116;2022-07-12T00:04:07;1.40;;;1.30;;
49103;SDS011;34915;52.926;11.116;2022-07-12T00:06:33;0.80;;;0.80;;
49103;SDS011;34915;52.926;11.116;2022-07-12T00:08:58;0.80;;;0.80;;
49103;SDS011;34915;52.926;11.116;2022-07-12T00:11:24;1.63;;;1.17;;
49103;SDS011;34915;52.926;11.116;2022-07-12T00:13:50;1.43;;;1.33;;
49103;SDS011;34915;52.926;11.116;2022-07-12T00:16:15;1.93;;;1.30;;
49103;SDS011;34915;52.926;11.116;2022-07-12T00:18:41;1.00;;;1.00;;
49103;SDS011;34915;52.926;11.116;2022-07-12T00:21:07;1.53;;;1.20;;
49103;SDS011;34915;52.926;11.116;2022-07-12T00:23:33;1.00;;;0.90;;
49103;SDS011;34915;52.926;11.116;2022-07-12T00:25:59;1.20;;;1.10;;
49103;SDS011;34915;52.926;11.116;2022-07-12T00:28:29;0.90;;;0.90;;
49103;SDS011;34915;52.926;11.116;2022-07-12T00:30:55;1.70;;;1.53;;
49103;SDS011;34915;52.926;11.116;2022-07-12T00:33:21;1.13;;;1.03;;
49103;SDS011;34915;52.926;11.116;2022-07-12T00:35:47;2.17;;;1.30;;
49103;SDS011;34915;52.926;11.116;2022-07-12T00:38:12;1.27;;;1.20;;
49103;SDS011;34915;52.926;11.116;2022-07-12T00:40:38;1.30;;;1.20;;
49103;SDS011;34915;52.926;11.116;2022-07-12T00:43:03;1.03;;;1.00;;
49103;SDS011;34915;52.926;11.116;2022-07-12T00:45:29;1.50;;;1.33;;
49103;SDS011;34915;52.926;11.116;2022-07-12T00:47:54;3.40;;;1.30;;
49103;SDS011;34915;52.926;11.116;2022-07-12T00:50:21;2.13;;;1.40;;
49103;SDS011;34915;52.926;11.116;2022-07-12T00:52:48;1.47;;;1.37;;
49103;SDS011;34915;52.926;11.116;2022-07-12T00:55:16;1.33;;;1.23;;
49103;SDS011;34915;52.926;11.116;2022-07-12T00:57:43;1.30;;;1.13;;
49103;SDS011;34915;52.926;11.116;2022-07-12T01:00:10;1.87;;;1.17;;
49103;SDS011;34915;52.926;11.116;2022-07-12T01:02:37;1.40;;;1.30;;
49103;SDS011;34915;52.926;11.116;2022-07-12T01:05:04;1.70;;;1.60;;
49103;SDS011;34915;52.926;11.116;2022-07-12T01:07:31;1.37;;;1.33;;
49103;SDS011;34915;52.926;11.116;2022-07-12T01:09:56;3.20;;;1.43;;
49103;SDS011;34915;52.926;11.116;2022-07-12T01:12:24;1.43;;;1.10;;
49103;SDS011;34915;52.926;11.116;2022-07-12T01:14:50;1.50;;;1.40;;
49103;SDS011;34915;52.926;11.116;2022-07-12T01:17:23;2.20;;;1.63;;
49103;SDS011;34915;52.926;11.116;2022-07-12T01:19:51;1.93;;;1.60;;
49103;SDS011;34915;52.926;11.116;2022-07-12T01:22:18;3.47;;;1.33;;
49103;SDS011;34915;52.926;11.116;2022-07-12T01:24:45;1.40;;;1.30;;
49103;SDS011;34915;52.926;11.116;2022-07-12T01:27:14;1.30;;;1.20;;
49103;SDS011;34915;52.926;11.116;2022-07-12T01:29:39;2.63;;;1.40;;
49103;SDS011;34915;52.926;11.116;2022-07-12T01:32:08;1.50;;;1.40;;
49103;SDS011;34915;52.926;11.116;2022-07-12T01:34:54;1.77;;;1.67;;
49103;SDS011;34915;52.926;11.116;2022-07-12T01:37:22;2.27;;;1.40;;
49103;SDS011;34915;52.926;11.116;2022-07-12T01:39:53;2.00;;;1.20;;
49103;SDS011;34915;52.926;11.116;2022-07-12T01:42:23;1.73;;;1.50;;
49103;SDS011;34915;52.926;11.116;2022-07-12T01:44:53;1.27;;;1.23;;
49103;SDS011;34915;52.926;11.116;2022-07-12T01:47:26;2.83;;;1.50;;
49103;SDS011;34915;52.926;11.116;2022-07-12T01:49:53;2.13;;;1.80;;
49103;SDS011;34915;52.926;11.116;2022-07-12T01:52:19;1.93;;;1.80;;
49103;SDS011;34915;52.926;11.116;2022-07-12T01:54:46;2.40;;;1.97;;
49103;SDS011;34915;52.926;11.116;2022-07-12T01:57:12;2.10;;;1.90;;
49103;SDS011;34915;52.926;11.116;2022-07-12T01:59:39;2.30;;;2.10;;
49103;SDS011;34915;52.926;11.116;2022-07-12T02:02:05;1.97;;;1.77;;
49103;SDS011;34915;52.926;11.116;2022-07-12T02:04:32;2.33;;;2.13;;
49103;SDS011;34915;52.926;11.116;2022-07-12T02:06:58;2.33;;;1.80;;
49103;SDS011;34915;52.926;11.116;2022-07-12T02:09:27;1.90;;;1.80;;
49103;SDS011;34915;52.926;11.116;2022-07-12T02:11:53;3.73;;;2.13;;
49103;SDS011;34915;52.926;11.116;2022-07-12T02:14:19;1.87;;;1.77;;
49103;SDS011;34915;52.926;11.116;2022-07-12T02:16:45;2.10;;;1.90;;
49103;SDS011;34915;52.926;11.116;2022-07-12T02:19:11;2.70;;;2.23;;
49103;SDS011;34915;52.926;11.116;2022-07-12T02:21:38;3.30;;;2.00;;
49103;SDS011;34915;52.926;11.116;2022-07-12T02:24:04;2.43;;;2.23;;
49103;SDS011;34915;52.926;11.116;2022-07-12T02:26:32;7.03;;;2.90;;
49103;SDS011;34915;52.926;11.116;2022-07-12T02:28:58;4.27;;;1.97;;
49103;SDS011;34915;52.926;11.116;2022-07-12T02:31:24;3.17;;;1.60;;
49103;SDS011;34915;52.926;11.116;2022-07-12T02:33:51;2.87;;;2.57;;
49103;SDS011;34915;52.926;11.116;2022-07-12T02:36:17;1.90;;;1.80;;
49103;SDS011;34915;52.926;11.116;2022-07-12T02:38:42;2.83;;;1.90;;
49103;SDS011;34915;52.926;11.116;2022-07-12T02:41:08;1.90;;;1.80;;
49103;SDS011;34915;52.926;11.116;2022-07-12T02:43:33;3.17;;;1.93;;
49103;SDS011;34915;52.926;11.116;2022-07-12T02:46:03;2.00;;;1.73;;
49103;SDS011;34915;52.926;11.116;2022-07-12T02:48:30;1.93;;;1.83;;
49103;SDS011;34915;52.926;11.116;2022-07-12T02:50:56;2.40;;;2.20;;
49103;SDS011;34915;52.926;11.116;2022-07-12T02:53:21;2.30;;;2.10;;
49103;SDS011;34915;52.926;11.116;2022-07-12T02:55:47;2.00;;;1.87;;
49103;SDS011;34915;52.926;11.116;2022-07-12T02:58:13;2.30;;;2.10;;
49103;SDS011;34915;52.926;11.116;2022-07-12T03:00:39;2.90;;;2.60;;
49103;SDS011;34915;52.926;11.116;2022-07-12T03:03:05;2.50;;;2.30;;
49103;SDS011;34915;52.926;11.116;2022-07-12T03:05:34;2.50;;;2.30;;
49103;SDS011;34915;52.926;11.116;2022-07-12T03:08:01;2.87;;;2.57;;
49103;SDS011;34915;52.926;11.116;2022-07-12T03:10:27;4.07;;;2.73;;
49103;SDS011;34915;52.926;11.116;2022-07-12T03:12:53;2.77;;;2.53;;
49103;SDS011;34915;52.926;11.116;2022-07-12T03:15:19;2.90;;;2.70;;
49103;SDS011;34915;52.926;11.116;2022-07-12T03:17:44;5.07;;;2.30;;
49103;SDS011;34915;52.926;11.116;2022-07-12T03:20:10;2.80;;;2.03;;
49103;SDS011;34915;52.926;11.116;2022-07-12T03:22:43;2.63;;;2.43;;
49103;SDS011;34915;52.926;11.116;2022-07-12T03:25:11;2.77;;;2.20;;
49103;SDS011;34915;52.926;11.116;2022-07-12T03:27:37;3.07;;;2.60;;
49103;SDS011;34915;52.926;11.116;2022-07-12T03:30:03;4.67;;;2.70;;
49103;SDS011;34915;52.926;11.116;2022-07-12T03:32:29;2.67;;;2.47;;
49103;SDS011;34915;52.926;11.116;2022-07-12T03:34:55;4.03;;;2.63;;
49103;SDS011;34915;52.926;11.116;2022-07-12T03:37:20;3.03;;;2.30;;
49103;SDS011;34915;52.926;11.116;2022-07-12T03:39:46;2.83;;;2.53;;
49103;SDS011;34915;52.926;11.116;2022-07-12T03:42:12;3.13;;;2.40;;
49103;SDS011;34915;52.926;11.116;2022-07-12T03:44:37;2.57;;;2.37;;
49103;SDS011;34915;52.926;11.116;2022-07-12T03:47:03;2.57;;;2.37;;
49103;SDS011;34915;52.926;11.116;2022-07-12T03:49:29;4.90;;;2.50;;
49103;SDS011;34915;52.926;11.116;2022-07-12T03:51:54;2.70;;;2.50;;
49103;SDS011;34915;52.926;11.116;2022-07-12T03:54:20;3.17;;;2.77;;
49103;SDS011;34915;52.926;11.116;2022-07-12T03:56:46;3.57;;;3.10;;
49103;SDS011;34915;52.926;11.116;2022-07-12T03:59:30;3.47;;;3.07;;
49103;SDS011;34915;52.926;11.116;2022-07-12T04:01:55;3.83;;;2.70;;
49103;SDS011;34915;52.926;11.116;2022-07-12T04:04:21;2.83;;;2.63;;
49103;SDS011;34915;52.926;11.116;2022-07-12T04:06:47;3.30;;;3.00;;
49103;SDS011;34915;52.926;11.116;2022-07-12T04:09:12;3.53;;;3.23;;
49103;SDS011;34915;52.926;11.116;2022-07-12T04:11:38;3.93;;;3.27;;
49103;SDS011;34915;52.926;11.116;2022-07-12T04:14:04;4.40;;;3.30;;
49103;SDS011;34915;52.926;11.116;2022-07-12T04:16:29;4.93;;;3.10;;
49103;SDS011;34915;52.926;11.116;2022-07-12T04:18:55;3.83;;;3.40;;
49103;SDS011;34915;52.926;11.116;2022-07-12T04:21:21;4.17;;;3.77;;
49103;SDS011;34915;52.926;11.116;2022-07-12T04:23:50;3.90;;;3.17;;
49103;SDS011;34915;52.926;11.116;2022-07-12T04:26:15;5.10;;;3.90;;
49103;SDS011;34915;52.926;11.116;2022-07-12T04:28:41;4.40;;;4.00;;
49103;SDS011;34915;52.926;11.116;2022-07-12T04:31:06;5.97;;;3.83;;
49103;SDS011;34915;52.926;11.116;2022-07-12T04:33:32;4.03;;;3.60;;
49103;SDS011;34915;52.926;11.116;2022-07-12T04:35:58;4.60;;;3.90;;
49103;SDS011;34915;52.926;11.116;2022-07-12T04:38:24;4.63;;;3.93;;
49103;SDS011;34915;52.926;11.116;2022-07-12T04:40:51;5.43;;;4.10;;
49103;SDS011;34915;52.926;11.116;2022-07-12T04:43:17;6.03;;;3.90;;
49103;SDS011;34915;52.926;11.116;2022-07-12T04:45:42;5.23;;;3.70;;
49103;SDS011;34915;52.926;11.116;2022-07-12T04:48:09;5.43;;;3.97;;
49103;SDS011;34915;52.926;11.116;2022-07-12T04:50:36;5.90;;;4.83;;
49103;SDS011;34915;52.926;11.116;2022-07-12T04:53:01;7.63;;;5.17;;
49103;SDS011;34915;52.926;11.116;2022-07-12T04:55:27;4.93;;;3.97;;
49103;SDS011;34915;52.926;11.116;2022-07-12T04:57:53;5.00;;;4.50;;
49103;SDS011;34915;52.926;11.116;2022-07-12T05:00:18;4.93;;;4.43;;
49103;SDS011;34915;52.926;11.116;2022-07-12T05:02:44;7.47;;;5.10;;
49103;SDS011;34915;52.926;11.116;2022-07-12T05:05:09;8.97;;;6.27;;
49103;SDS011;34915;52.926;11.116;2022-07-12T05:07:35;8.57;;;4.47;;
49103;SDS011;34915;52.926;11.116;2022-07-12T05:10:00;8.73;;;5.33;;
49103;SDS011;34915;52.926;11.116;2022-07-12T05:12:26;7.97;;;4.90;;
49103;SDS011;34915;52.926;11.116;2022-07-12T05:14:52;8.13;;;4.63;;
49103;SDS011;34915;52.926;11.116;2022-07-12T05:17:17;5.20;;;4.37;;
49103;SDS011;34915;52.926;11.116;2022-07-12T05:19:43;7.50;;;4.63;;
49103;SDS011;34915;52.926;11.116;2022-07-12T05:22:12;6.10;;;3.57;;
49103;SDS011;34915;52.926;11.116;2022-07-12T05:24:37;4.00;;;3.33;;
49103;SDS011;34915;52.926;11.116;2022-07-12T05:27:03;3.73;;;3.40;;
49103;SDS011;34915;52.926;11.116;2022-07-12T05:29:29;6.27;;;4.57;;
49103;SDS011;34915;52.926;11.116;2022-07-12T05:31:55;5.17;;;4.47;;
49103;SDS011;34915;52.926;11.116;2022-07-12T05:34:21;6.73;;;4.60;;
49103;SDS011;34915;52.926;11.116;2022-07-12T05:36:47;7.83;;;4.03;;
49103;SDS011;34915;52.926;11.116;2022-07-12T05:39:12;5.00;;;4.23;;
49103;SDS011;34915;52.926;11.116;2022-07-12T05:41:38;6.17;;;4.33;;
49103;SDS011;34915;52.926;11.116;2022-07-12T05:44:04;6.60;;;4.40;;
49103;SDS011;34915;52.926;11.116;2022-07-12T05:46:30;5.33;;;3.83;;
49103;SDS011;34915;52.926;11.116;2022-07-12T05:48:56;5.37;;;4.23;;
49103;SDS011;34915;52.926;11.116;2022-07-12T05:51:21;4.53;;;4.13;;
49103;SDS011;34915;52.926;11.116;2022-07-12T05:54:06;7.20;;;4.20;;
49103;SDS011;34915;52.926;11.116;2022-07-12T05:56:31;6.53;;;4.20;;
49103;SDS011;34915;52.926;11.116;2022-07-12T05:58:57;5.70;;;4.33;;
49103;SDS011;34915;52.926;11.116;2022-07-12T06:01:23;5.70;;;4.23;;
49103;SDS011;34915;52.926;11.116;2022-07-12T06:03:48;8.07;;;4.60;;
49103;SDS011;34915;52.926;11.116;2022-07-12T06:06:14;5.57;;;3.90;;
49103;SDS011;34915;52.926;11.116;2022-07-12T06:08:39;4.87;;;4.00;;
49103;SDS011;34915;52.926;11.116;2022-07-12T06:11:05;4.33;;;3.93;;
49103;SDS011;34915;52.926;11.116;2022-07-12T06:13:31;5.00;;;4.03;;
49103;SDS011;34915;52.926;11.116;2022-07-12T06:15:56;6.00;;;3.30;;
49103;SDS011;34915;52.926;11.116;2022-07-12T06:18:22;4.03;;;3.10;;
49103;SDS011;34915;52.926;11.116;2022-07-12T06:20:47;3.37;;;2.60;;
49103;SDS011;34915;52.926;11.116;2022-07-12T06:23:13;4.30;;;3.10;;
49103;SDS011;34915;52.926;11.116;2022-07-12T06:25:39;2.83;;;2.53;;
49103;SDS011;34915;52.926;11.116;2022-07-12T06:28:05;3.57;;;2.20;;
49103;SDS011;34915;52.926;11.116;2022-07-12T06:30:31;4.63;;;2.67;;
49103;SDS011;34915;52.926;11.116;2022-07-12T06:32:57;2.50;;;2.30;;
49103;SDS011;34915;52.926;11.116;2022-07-12T06:35:22;3.10;;;2.73;;
49103;SDS011;34915;52.926;11.116;2022-07-12T06:37:48;3.23;;;2.93;;
49103;SDS011;34915;52.926;11.116;2022-07-12T06:40:14;4.60;;;2.80;;
49103;SDS011;34915;52.926;11.116;2022-07-12T06:42:42;3.57;;;3.10;;
49103;SDS011;34915;52.926;11.116;2022-07-12T06:45:10;3.00;;;2.80;;
49103;SDS011;34915;52.926;11.116;2022-07-12T06:47:36;3.23;;;2.93;;
49103;SDS011;34915;52.926;11.116;2022-07-12T06:50:02;2.73;;;2.53;;
49103;SDS011;34915;52.926;11.116;2022-07-12T06:52:29;2.70;;;2.50;;
49103;SDS011;34915;52.926;11.116;2022-07-12T06:54:55;3.30;;;2.43;;
49103;SDS011;34915;52.926;11.116;2022-07-12T06:57:21;3.13;;;2.70;;
49103;SDS011;34915;52.926;11.116;2022-07-12T06:59:47;4.70;;;2.70;;
49103;SDS011;34915;52.926;11.116;2022-07-12T07:02:13;4.83;;;2.83;;
49103;SDS011;34915;52.926;11.116;2022-07-12T07:04:39;3.13;;;2.40;;
49103;SDS011;34915;52.926;11.116;2022-07-12T07:07:05;2.17;;;1.97;;
49103;SDS011;34915;52.926;11.116;2022-07-12T07:09:30;3.60;;;2.37;;
49103;SDS011;34915;52.926;11.116;2022-07-12T07:11:56;2.53;;;2.27;;
49103;SDS011;34915;52.926;11.116;2022-07-12T07:14:22;2.50;;;2.30;;
49103;SDS011;34915;52.926;11.116;2022-07-12T07:16:47;1.97;;;1.87;;
49103;SDS011;34915;52.926;11.116;2022-07-12T07:19:13;3.07;;;2.30;;
49103;SDS011;34915;52.926;11.116;2022-07-12T07:21:38;4.23;;;1.70;;
49103;SDS011;34915;52.926;11.116;2022-07-12T07:24:04;1.83;;;1.60;;
49103;SDS011;34915;52.926;11.116;2022-07-12T07:26:30;2.43;;;1.90;;
49103;SDS011;34915;52.926;11.116;2022-07-12T07:28:57;3.27;;;2.17;;
49103;SDS011;34915;52.926;11.116;2022-07-12T07:31:42;2.30;;;2.10;;
49103;SDS011;34915;52.926;11.116;2022-07-12T07:34:07;3.03;;;2.23;;
49103;SDS011;34915;52.926;11.116;2022-07-12T07:36:33;2.57;;;2.20;;
49103;SDS011;34915;52.926;11.116;2022-07-12T07:38:59;2.37;;;2.17;;
49103;SDS011;34915;52.926;11.116;2022-07-12T07:41:25;3.70;;;1.77;;
49103;SDS011;34915;52.926;11.116;2022-07-12T07:43:51;3.27;;;1.93;;
49103;SDS011;34915;52.926;11.116;2022-07-12T07:46:16;2.57;;;2.37;;
49103;SDS011;34915;52.926;11.116;2022-07-12T07:48:42;5.47;;;2.50;;
49103;SDS011;34915;52.926;11.116;2022-07-12T07:51:08;2.83;;;2.27;;
49103;SDS011;34915;52.926;11.116;2022-07-12T07:53:34;4.20;;;2.60;;
49103;SDS011;34915;52.926;11.116;2022-07-12T07:55:59;3.00;;;2.80;;
49103;SDS011;34915;52.926;11.116;2022-07-12T07:58:25;3.80;;;2.37;;
49103;SDS011;34915;52.926;11.116;2022-07-12T08:00:51;3.10;;;2.37;;
49103;SDS011;34915;52.926;11.116;2022-07-12T08:03:17;2.67;;;2.47;;
49103;SDS011;34915;52.926;11.116;2022-07-12T08:05:43;3.40;;;2.47;;
49103;SDS011;34915;52.926;11.116;2022-07-12T08:08:11;3.27;;;2.30;;
49103;SDS011;34915;52.926;11.116;2022-07-12T08:10:37;2.40;;;1.97;;
49103;SDS011;34915;52.926;11.116;2022-07-12T08:13:02;2.27;;;2.00;;
49103;SDS011;34915;52.926;11.116;2022-07-12T08:15:29;4.00;;;2.73;;
49103;SDS011;34915;52.926;11.116;2022-07-12T08:17:56;2.53;;;2.33;;
49103;SDS011;34915;52.926;11.116;2022-07-12T08:20:25;3.03;;;2.33;;
49103;SDS011;34915;52.926;11.116;2022-07-12T08:22:50;2.23;;;2.03;;
49103;SDS011;34915;52.926;11.116;2022-07-12T08:25:16;2.27;;;1.90;;
49103;SDS011;34915;52.926;11.116;2022-07-12T08:27:42;4.83;;;1.90;;
49103;SDS011;34915;52.926;11.116;2022-07-12T08:30:08;2.30;;;2.00;;
49103;SDS011;34915;52.926;11.116;2022-07-12T08:32:34;3.00;;;2.00;;
49103;SDS011;34915;52.926;11.116;2022-07-12T08:35:00;2.30;;;2.20;;
49103;SDS011;34915;52.926;11.116;2022-07-12T08:37:26;2.30;;;1.80;;
49103;SDS011;34915;52.926;11.116;2022-07-12T08:39:51;1.93;;;1.73;;
49103;SDS011;34915;52.926;11.116;2022-07-12T08:42:17;2.87;;;2.20;;
49103;SDS011;34915;52.926;11.116;2022-07-12T08:44:56;1.93;;;1.83;;
49103;SDS011;34915;52.926;11.116;2022-07-12T08:47:22;2.20;;;2.00;;
49103;SDS011;34915;52.926;11.116;2022-07-12T08:52:46;2.60;;;2.37;;
49103;SDS011;34915;52.926;11.116;2022-07-12T08:55:26;2.47;;;1.93;;
49103;SDS011;34915;52.926;11.116;2022-07-12T08:57:54;2.20;;;2.00;;
49103;SDS011;34915;52.926;11.116;2022-07-12T09:00:22;1.97;;;1.70;;
49103;SDS011;34915;52.926;11.116;2022-07-12T09:02:50;2.93;;;1.90;;
49103;SDS011;34915;52.926;11.116;2022-07-12T09:05:21;2.10;;;1.90;;
49103;SDS011;34915;52.926;11.116;2022-07-12T09:07:51;2.87;;;2.20;;
49103;SDS011;34915;52.926;11.116;2022-07-12T09:10:17;2.17;;;1.90;;
49103;SDS011;34915;52.926;11.116;2022-07-12T09:12:44;1.90;;;1.80;;
49103;SDS011;34915;52.926;11.116;2022-07-12T09:15:19;2.57;;;1.60;;
49103;SDS011;34915;52.926;11.116;2022-07-12T09:17:59;3.10;;;1.63;;
49103;SDS011;34915;52.926;11.116;2022-07-12T09:20:31;4.43;;;1.60;;
49103;SDS011;34915;52.926;11.116;2022-07-12T09:23:03;2.87;;;1.70;;
49103;SDS011;34915;52.926;11.116;2022-07-12T09:25:30;3.77;;;1.43;;
49103;SDS011;34915;52.926;11.116;2022-07-12T09:27:59;1.57;;;1.47;;
49103;SDS011;34915;52.926;11.116;2022-07-12T09:30:31;2.50;;;1.60;;
49103;SDS011;34915;52.926;11.116;2022-07-12T09:33:19;3.40;;;1.50;;
49103;SDS011;34915;52.926;11.116;2022-07-12T09:36:04;2.30;;;1.40;;
49103;SDS011;34915;52.926;11.116;2022-07-12T09:41:14;1.00;;;1.00;;
49103;SDS011;34915;52.926;11.116;2022-07-12T09:43:42;1.40;;;1.30;;
49103;SDS011;34915;52.926;11.116;2022-07-12T09:48:53;1.70;;;1.60;;
49103;SDS011;34915;52.926;11.116;2022-07-12T09:51:19;2.03;;;1.13;;
49103;SDS011;34915;52.926;11.116;2022-07-12T09:53:47;2.37;;;1.53;;
49103;SDS011;34915;52.926;11.116;2022-07-12T09:56:31;1.53;;;1.40;;
49103;SDS011;34915;52.926;11.116;2022-07-12T09:59:01;1.33;;;1.23;;
49103;SDS011;34915;52.926;11.116;2022-07-12T10:01:27;0.93;;;0.93;;
49103;SDS011;34915;52.926;11.116;2022-07-12T10:03:56;2.23;;;1.10;;
49103;SDS011;34915;52.926;11.116;2022-07-12T10:06:29;1.07;;;1.03;;
49103;SDS011;34915;52.926;11.116;2022-07-12T10:08:55;1.40;;;1.30;;
49103;SDS011;34915;52.926;11.116;2022-07-12T10:11:22;1.20;;;1.00;;
49103;SDS011;34915;52.926;11.116;2022-07-12T10:14:11;2.07;;;1.00;;
49103;SDS011;34915;52.926;11.116;2022-07-12T10:16:37;0.97;;;0.97;;
49103;SDS011;34915;52.926;11.116;2022-07-12T10:21:53;1.40;;;1.13;;
49103;SDS011;34915;52.926;11.116;2022-07-12T10:26:59;1.40;;;1.30;;
49103;SDS011;34915;52.926;11.116;2022-07-12T10:29:27;1.20;;;1.10;;
49103;SDS011;34915;52.926;11.116;2022-07-12T10:31:52;1.47;;;1.37;;
49103;SDS011;34915;52.926;11.116;2022-07-12T10:34:22;1.17;;;1.10;;
49103;SDS011;34915;52.926;11.116;2022-07-12T10:37:06;0.93;;;0.93;;
49103;SDS011;34915;52.926;11.116;2022-07-12T10:42:37;1.50;;;1.00;;
49103;SDS011;34915;52.926;11.116;2022-07-12T10:47:57;1.70;;;1.27;;
49103;SDS011;34915;52.926;11.116;2022-07-12T10:58:51;1.30;;;1.20;;
49103;SDS011;34915;52.926;11.116;2022-07-12T11:04:10;1.60;;;1.50;;
49103;SDS011;34915;52.926;11.116;2022-07-12T11:06:40;0.90;;;0.90;;
49103;SDS011;34915;52.926;11.116;2022-07-12T11:09:07;1.83;;;1.00;;
49103;SDS011;34915;52.926;11.116;2022-07-12T11:11:46;1.37;;;1.10;;
49103;SDS011;34915;52.926;11.116;2022-07-12T11:14:26;1.13;;;1.13;;
49103;SDS011;34915;52.926;11.116;2022-07-12T11:16:57;1.87;;;1.27;;
49103;SDS011;34915;52.926;11.116;2022-07-12T11:19:41;1.20;;;1.00;;
49103;SDS011;34915;52.926;11.116;2022-07-12T11:22:07;1.10;;;1.03;;
49103;SDS011;34915;52.926;11.116;2022-07-12T11:24:33;1.97;;;1.30;;
49103;SDS011;34915;52.926;11.116;2022-07-12T11:27:02;0.73;;;0.73;;
49103;SDS011;34915;52.926;11.116;2022-07-12T11:30:00;1.00;;;1.00;;
49103;SDS011;34915;52.926;11.116;2022-07-12T11:32:38;7.40;;;1.27;;
49103;SDS011;34915;52.926;11.116;2022-07-12T11:35:26;0.90;;;0.90;;
49103;SDS011;34915;52.926;11.116;2022-07-12T11:37:52;0.90;;;0.90;;
49103;SDS011;34915;52.926;11.116;2022-07-12T11:40:23;1.13;;;1.10;;
49103;SDS011;34915;52.926;11.116;2022-07-12T11:42:57;0.87;;;0.87;;
49103;SDS011;34915;52.926;11.116;2022-07-12T11:45:27;0.90;;;0.90;;
49103;SDS011;34915;52.926;11.116;2022-07-12T11:47:54;0.80;;;0.80;;
49103;SDS011;34915;52.926;11.116;2022-07-12T11:50:21;0.90;;;0.90;;
49103;SDS011;34915;52.926;11.116;2022-07-12T11:52:47;1.07;;;0.97;;
49103;SDS011;34915;52.926;11.116;2022-07-12T11:55:31;1.00;;;1.00;;
49103;SDS011;34915;52.926;11.116;2022-07-12T11:58:06;0.90;;;0.90;;
49103;SDS011;34915;52.926;11.116;2022-07-12T12:00:32;1.10;;;1.00;;
49103;SDS011;34915;52.926;11.116;2022-07-12T12:05:46;1.33;;;1.07;;
49103;SDS011;34915;52.926;11.116;2022-07-12T12:08:14;1.30;;;1.20;;
49103;SDS011;34915;52.926;11.116;2022-07-12T12:10:40;0.90;;;0.90;;
49103;SDS011;34915;52.926;11.116;2022-07-12T12:13:14;0.90;;;0.90;;
49103;SDS011;34915;52.926;11.116;2022-07-12T12:15:41;0.90;;;0.90;;
49103;SDS011;34915;52.926;11.116;2022-07-12T12:18:13;0.90;;;0.90;;
49103;SDS011;34915;52.926;11.116;2022-07-12T12:20:39;1.10;;;0.97;;
49103;SDS011;34915;52.926;11.116;2022-07-12T12:23:15;1.57;;;0.80;;
49103;SDS011;34915;52.926;11.116;2022-07-12T12:25:42;1.07;;;1.07;;
49103;SDS011;34915;52.926;11.116;2022-07-12T12:28:08;1.27;;;0.87;;
49103;SDS011;34915;52.926;11.116;2022-07-12T12:30:34;2.03;;;0.90;;
49103;SDS011;34915;52.926;11.116;2022-07-12T12:33:12;0.80;;;0.80;;
49103;SDS011;34915;52.926;11.116;2022-07-12T12:38:36;0.97;;;0.97;;
49103;SDS011;34915;52.926;11.116;2022-07-12T12:41:01;1.80;;;1.07;;
49103;SDS011;34915;52.926;11.116;2022-07-12T12:43:27;0.80;;;0.80;;
49103;SDS011;34915;52.926;11.116;2022-07-12T12:48:20;0.70;;;0.70;;
49103;SDS011;34915;52.926;11.116;2022-07-12T12:50:51;0.67;;;0.60;;
49103;SDS011;34915;52.926;11.116;2022-07-12T12:53:27;0.60;;;0.60;;
49103;SDS011;34915;52.926;11.116;2022-07-12T12:55:54;0.63;;;0.63;;
49103;SDS011;34915;52.926;11.116;2022-07-12T12:58:21;0.50;;;0.50;;
49103;SDS011;34915;52.926;11.116;2022-07-12T13:00:51;0.80;;;0.80;;
49103;SDS011;34915;52.926;11.116;2022-07-12T13:03:22;0.83;;;0.80;;
49103;SDS011;34915;52.926;11.116;2022-07-12T13:05:51;0.93;;;0.90;;
49103;SDS011;34915;52.926;11.116;2022-07-12T13:08:17;1.00;;;1.00;;
49103;SDS011;34915;52.926;11.116;2022-07-12T13:10:47;1.03;;;1.03;;
49103;SDS011;34915;52.926;11.116;2022-07-12T13:13:33;2.17;;;1.10;;
49103;SDS011;34915;52.926;11.116;2022-07-12T13:15:58;0.83;;;0.83;;
49103;SDS011;34915;52.926;11.116;2022-07-12T13:18:24;1.73;;;0.90;;
49103;SDS011;34915;52.926;11.116;2022-07-12T13:21:08;0.87;;;0.87;;
49103;SDS011;34915;52.926;11.116;2022-07-12T13:23:52;1.33;;;0.80;;
49103;SDS011;34915;52.926;11.116;2022-07-12T13:26:18;2.37;;;0.80;;
49103;SDS011;34915;52.926;11.116;2022-07-12T13:28:43;1.90;;;0.80;;
49103;SDS011;34915;52.926;11.116;2022-07-12T13:31:09;0.80;;;0.80;;
49103;SDS011;34915;52.926;11.116;2022-07-12T13:33:34;2.50;;;0.90;;
49103;SDS011;34915;52.926;11.116;2022-07-12T13:36:18;0.63;;;0.63;;
49103;SDS011;34915;52.926;11.116;2022-07-12T13:38:44;0.70;;;0.50;;
49103;SDS011;34915;52.926;11.116;2022-07-12T13:41:10;0.80;;;0.80;;
49103;SDS011;34915;52.926;11.116;2022-07-12T13:49:04;0.60;;;0.60;;
49103;SDS011;34915;52.926;11.116;2022-07-12T13:51:30;2.57;;;0.70;;
49103;SDS011;34915;52.926;11.116;2022-07-12T13:53:56;1.80;;;0.70;;
49103;SDS011;34915;52.926;11.116;2022-07-12T13:56:22;0.83;;;0.70;;
49103;SDS011;34915;52.926;11.116;2022-07-12T14:01:50;0.63;;;0.60;;
49103;SDS011;34915;52.926;11.116;2022-07-12T14:04:18;0.80;;;0.80;;
49103;SDS011;34915;52.926;11.116;2022-07-12T14:06:44;1.57;;;0.80;;
49103;SDS011;34915;52.926;11.116;2022-07-12T14:09:11;0.77;;;0.77;;
49103;SDS011;34915;52.926;11.116;2022-07-12T14:11:37;1.00;;;0.90;;
49103;SDS011;34915;52.926;11.116;2022-07-12T14:14:02;2.00;;;0.70;;
49103;SDS011;34915;52.926;11.116;2022-07-12T14:16:28;1.93;;;0.60;;
49103;SDS011;34915;52.926;11.116;2022-07-12T14:18:53;1.10;;;0.60;;
49103;SDS011;34915;52.926;11.116;2022-07-12T14:21:19;0.93;;;0.70;;
49103;SDS011;34915;52.926;11.116;2022-07-12T14:23:45;1.27;;;0.57;;
49103;SDS011;34915;52.926;11.116;2022-07-12T14:26:10;2.30;;;0.70;;
49103;SDS011;34915;52.926;11.116;2022-07-12T14:28:36;1.23;;;0.80;;
49103;SDS011;34915;52.926;11.116;2022-07-12T14:31:02;0.60;;;0.60;;
49103;SDS011;34915;52.926;11.116;2022-07-12T14:33:32;3.17;;;0.63;;
49103;SDS011;34915;52.926;11.116;2022-07-12T14:35:57;2.93;;;0.73;;
49103;SDS011;34915;52.926;11.116;2022-07-12T14:38:23;1.70;;;0.80;;
49103;SDS011;34915;52.926;11.116;2022-07-12T14:41:07;4.13;;;1.00;;
49103;SDS011;34915;52.926;11.116;2022-07-12T14:43:53;0.63;;;0.63;;
49103;SDS011;34915;52.926;11.116;2022-07-12T14:46:20;1.60;;;0.80;;
49103;SDS011;34915;52.926;11.116;2022-07-12T14:48:46;1.73;;;0.80;;
49103;SDS011;34915;52.926;11.116;2022-07-12T14:51:12;0.70;;;0.70;;
49103;SDS011;34915;52.926;11.116;2022-07-12T14:53:37;1.47;;;0.87;;
49103;SDS011;34915;52.926;11.116;2022-07-12T14:56:05;3.47;;;0.80;;
49103;SDS011;34915;52.926;11.116;2022-07-12T14:58:33;0.73;;;0.73;;
49103;SDS011;34915;52.926;11.116;2022-07-12T15:00:58;0.80;;;0.80;;
49103;SDS011;34915;52.926;11.116;2022-07-12T15:03:24;0.90;;;0.77;;
49103;SDS011;34915;52.926;11.116;2022-07-12T15:06:08;3.37;;;0.60;;
49103;SDS011;34915;52.926;11.116;2022-07-12T15:08:34;0.70;;;0.70;;
49103;SDS011;34915;52.926;11.116;2022-07-12T15:11:00;0.70;;;0.70;;
49103;SDS011;34915;52.926;11.116;2022-07-12T15:13:30;0.43;;;0.43;;
49103;SDS011;34915;52.926;11.116;2022-07-12T15:15:56;0.70;;;0.70;;
49103;SDS011;34915;52.926;11.116;2022-07-12T15:18:21;0.90;;;0.87;;
49103;SDS011;34915;52.926;11.116;2022-07-12T15:20:49;0.90;;;0.90;;
49103;SDS011;34915;52.926;11.116;2022-07-12T15:23:15;1.60;;;0.60;;
49103;SDS011;34915;52.926;11.116;2022-07-12T15:25:59;0.97;;;0.33;;